Time,TemperatureF,DewpointF,PressureIn,WindDirection,WindDirectionDegrees,WindSpeedMPH,WindSpeedGustMPH,Humidity,HourlyPrecipIn,Conditions,Clouds,dailyrainin,SoftwareType,DateUTC
2013-01-14 00:00:00,48.5,47.1,29.92,WSW,247,1.0,6.0,95,0.00,,,-99.99,WeatherLink 5.7,2013-01-14 05:00:00,
2013-01-14 00:05:00,48.5,47.1,29.92,WSW,247,0.0,4.0,95,0.00,,,-99.99,WeatherLink 5.7,2013-01-14 05:05:00,
2013-01-14 00:10:00,48.6,47.2,29.92,West,270,0.0,3.0,95,0.00,,,-99.99,WeatherLink 5.7,2013-01-14 05:10:00,
2013-01-14 00:15:00,48.5,47.1,29.91,West,270,0.0,2.0,95,0.00,,,-99.99,WeatherLink 5.7,2013-01-14 05:15:00,
2013-01-14 00:20:00,48.5,47.1,29.91,West,270,1.0,3.0,95,0.00,,,-99.99,WeatherLink 5.7,2013-01-14 05:20:00,
2013-01-14 00:25:00,48.5,47.1,29.91,WSW,247,1.0,3.0,95,0.00,,,-99.99,WeatherLink 5.7,2013-01-14 05:25:00,
2013-01-14 00:30:00,48.5,47.1,29.91,SSW,202,1.0,3.0,95,0.00,,,-99.99,WeatherLink 5.7,2013-01-14 05:30:00,
2013-01-14 00:35:00,48.5,47.1,29.91,SSW,202,0.0,2.0,95,0.00,,,-99.99,WeatherLink 5.7,2013-01-14 05:35:00,
2013-01-14 00:40:00,48.5,47.1,29.91,SW,225,1.0,4.0,95,0.00,,,-99.99,WeatherLink 5.7,2013-01-14 05:40:00,
2013-01-14 00:45:00,48.5,47.1,29.91,SSW,202,0.0,3.0,95,0.00,,,-99.99,WeatherLink 5.7,2013-01-14 05:45:00,
2013-01-14 00:50:00,48.5,47.1,29.91,SSW,202,0.0,3.0,95,0.00,,,-99.99,WeatherLink 5.7,2013-01-14 05:50:00,
2013-01-14 00:55:00,48.5,47.1,29.91,SSW,202,0.0,2.0,95,0.00,,,-99.99,WeatherLink 5.7,2013-01-14 05:55:00,
2013-01-14 01:00:00,48.5,47.4,29.91,South,180,0.0,3.0,96,0.00,,,-99.99,WeatherLink 5.7,2013-01-14 06:00:00,
2013-01-14 01:05:00,48.5,47.4,29.91,South,180,0.0,2.0,96,0.00,,,-99.99,WeatherLink 5.7,2013-01-14 06:05:00,
2013-01-14 01:10:00,48.5,47.4,29.91,South,180,0.0,2.0,96,0.00,,,-99.99,WeatherLink 5.7,2013-01-14 06:10:00,
2013-01-14 01:15:00,48.3,47.2,29.91,SSE,157,0.0,4.0,96,0.00,,,-99.99,WeatherLink 5.7,2013-01-14 06:15:00,
2013-01-14 01:20:00,48.3,47.2,29.91,North,-999,0.0,0.0,96,0.00,,,-99.99,WeatherLink 5.7,2013-01-14 06:20:00,
2013-01-14 01:25:00,48.3,47.2,29.91,North,-999,0.0,0.0,96,0.00,,,-99.99,WeatherLink 5.7,2013-01-14 06:25:00,
2013-01-14 01:30:00,48.3,47.2,29.90,SSE,157,0.0,2.0,96,0.00,,,-99.99,WeatherLink 5.7,2013-01-14 06:30:00,
2013-01-14 01:41:00,48.3,47.2,29.90,SSW,202,0.0,3.0,96,0.00,,,-99.99,WeatherLink 5.7,2013-01-14 06:41:00,
2013-01-14 01:50:00,48.3,47.2,29.91,SSW,202,0.0,3.0,96,0.00,,,-99.99,WeatherLink 5.7,2013-01-14 06:50:00,
2013-01-14 01:55:00,48.3,47.2,29.91,South,180,0.0,2.0,96,0.00,,,-99.99,WeatherLink 5.7,2013-01-14 06:55:00,
2013-01-14 02:05:00,48.3,47.2,29.90,North,-999,0.0,0.0,96,0.00,,,-99.99,WeatherLink 5.7,2013-01-14 07:05:00,
2013-01-14 02:15:00,48.3,47.5,29.91,SSW,202,0.0,3.0,97,0.00,,,-99.99,WeatherLink 5.7,2013-01-14 07:15:00,
2013-01-14 02:25:00,48.5,47.7,29.91,West,270,0.0,1.0,97,0.00,,,-99.99,WeatherLink 5.7,2013-01-14 07:25:00,
2013-01-14 02:35:00,48.5,47.7,29.90,SW,225,0.0,1.0,97,0.00,,,-99.99,WeatherLink 5.7,2013-01-14 07:35:00,
2013-01-14 02:45:00,48.5,47.7,29.90,SW,225,1.0,6.0,97,0.00,,,-99.99,WeatherLink 5.7,2013-01-14 07:45:00,
2013-01-14 02:56:00,48.8,48.0,29.90,South,180,1.0,3.0,97,0.00,,,-99.99,WeatherLink 5.7,2013-01-14 07:56:00,
2013-01-14 03:05:00,48.8,48.0,29.90,SSW,202,1.0,5.0,97,0.00,,,-99.99,WeatherLink 5.7,2013-01-14 08:05:00,
2013-01-14 03:10:00,48.8,48.0,29.90,SSW,202,1.0,7.0,97,0.00,,,-99.99,WeatherLink 5.7,2013-01-14 08:10:00,
2013-01-14 03:15:00,48.8,48.0,29.90,SSW,202,1.0,5.0,97,0.00,,,-99.99,WeatherLink 5.7,2013-01-14 08:15:00,
2013-01-14 03:25:00,48.6,47.8,29.90,SSW,202,2.0,6.0,97,0.00,,,-99.99,WeatherLink 5.7,2013-01-14 08:25:00,
2013-01-14 03:35:00,48.6,47.8,29.88,SW,225,1.0,3.0,97,0.00,,,-99.99,WeatherLink 5.7,2013-01-14 08:35:00,
2013-01-14 03:45:00,48.6,47.8,29.87,SSE,157,2.0,5.0,97,0.00,,,-99.99,WeatherLink 5.7,2013-01-14 08:45:00,
2013-01-14 03:55:00,48.6,47.8,29.87,SSW,202,2.0,7.0,97,0.00,,,-99.99,WeatherLink 5.7,2013-01-14 08:55:00,
2013-01-14 04:05:00,48.5,47.7,29.86,SSW,202,2.0,7.0,97,0.00,,,-99.99,WeatherLink 5.7,2013-01-14 09:05:00,
2013-01-14 04:15:00,48.5,47.7,29.86,WSW,247,2.0,7.0,97,0.00,,,-99.99,WeatherLink 5.7,2013-01-14 09:15:00,
2013-01-14 04:21:00,48.5,47.7,29.86,SW,225,2.0,6.0,97,0.00,,,-99.99,WeatherLink 5.7,2013-01-14 09:21:00,
2013-01-14 04:30:00,48.3,47.5,29.86,SSW,202,2.0,6.0,97,0.00,,,-99.99,WeatherLink 5.7,2013-01-14 09:30:00,
2013-01-14 04:40:00,48.3,47.5,29.86,SW,225,1.0,6.0,97,0.00,,,-99.99,WeatherLink 5.7,2013-01-14 09:40:00,
2013-01-14 04:45:00,48.2,47.4,29.86,SW,225,2.0,6.0,97,0.00,,,-99.99,WeatherLink 5.7,2013-01-14 09:45:00,
2013-01-14 04:55:00,48.2,47.4,29.86,WSW,247,2.0,5.0,97,0.00,,,-99.99,WeatherLink 5.7,2013-01-14 09:55:00,
2013-01-14 05:05:00,48.2,47.4,29.86,SW,225,1.0,5.0,97,0.00,,,-99.99,WeatherLink 5.7,2013-01-14 10:05:00,
2013-01-14 05:10:00,48.2,47.4,29.86,SW,225,1.0,3.0,97,0.00,,,-99.99,WeatherLink 5.7,2013-01-14 10:10:00,
2013-01-14 05:20:00,48.2,47.1,29.86,West,270,1.0,3.0,96,0.00,,,-99.99,WeatherLink 5.7,2013-01-14 10:20:00,
2013-01-14 05:30:00,48.2,47.1,29.85,SSW,202,2.0,5.0,96,0.00,,,-99.99,WeatherLink 5.7,2013-01-14 10:30:00,
2013-01-14 05:35:00,48.2,47.1,29.85,SSW,202,1.0,5.0,96,0.00,,,-99.99,WeatherLink 5.7,2013-01-14 10:35:00,
2013-01-14 05:45:00,48.3,47.2,29.85,SW,225,1.0,3.0,96,0.00,,,-99.99,WeatherLink 5.7,2013-01-14 10:45:00,
2013-01-14 05:51:00,48.5,47.4,29.85,SW,225,1.0,3.0,96,0.00,,,-99.99,WeatherLink 5.7,2013-01-14 10:51:00,
2013-01-14 06:00:00,48.5,47.4,29.85,SSW,202,2.0,8.0,96,0.00,,,-99.99,WeatherLink 5.7,2013-01-14 11:00:00,
2013-01-14 06:05:00,48.6,47.5,29.85,SW,225,1.0,5.0,96,0.00,,,-99.99,WeatherLink 5.7,2013-01-14 11:05:00,
2013-01-14 06:10:00,48.6,47.5,29.85,SSW,202,1.0,5.0,96,0.00,,,-99.99,WeatherLink 5.7,2013-01-14 11:10:00,
2013-01-14 06:20:00,48.9,47.8,29.84,SSW,202,2.0,7.0,96,0.00,,,-99.99,WeatherLink 5.7,2013-01-14 11:20:00,
2013-01-14 06:30:00,49.1,48.0,29.81,SSW,202,3.0,10.0,96,0.00,,,-99.99,WeatherLink 5.7,2013-01-14 11:30:00,
2013-01-14 06:40:00,49.1,48.0,29.81,SSE,157,3.0,12.0,96,0.00,,,-99.99,WeatherLink 5.7,2013-01-14 11:40:00,
2013-01-14 06:50:00,49.4,48.3,29.80,South,180,6.0,12.0,96,0.00,,,-99.99,WeatherLink 5.7,2013-01-14 11:50:00,
2013-01-14 07:00:00,49.5,48.4,29.78,SSW,202,4.0,11.0,96,0.00,,,-99.99,WeatherLink 5.7,2013-01-14 12:00:00,
2013-01-14 07:10:00,49.8,48.7,29.78,SSW,202,4.0,11.0,96,0.00,,,-99.99,WeatherLink 5.7,2013-01-14 12:10:00,
2013-01-14 07:20:00,49.9,48.8,29.81,West,270,3.0,6.0,96,0.00,,,-99.99,WeatherLink 5.7,2013-01-14 12:20:00,
2013-01-14 07:30:00,49.9,48.8,29.84,West,270,1.0,7.0,96,0.00,,,-99.99,WeatherLink 5.7,2013-01-14 12:30:00,
2013-01-14 07:40:00,49.9,48.8,29.84,WSW,247,0.0,3.0,96,0.00,,,-99.99,WeatherLink 5.7,2013-01-14 12:40:00,
2013-01-14 07:45:00,49.9,48.8,29.85,West,270,1.0,5.0,96,0.00,,,-99.99,WeatherLink 5.7,2013-01-14 12:45:00,
2013-01-14 07:51:00,49.9,48.8,29.85,West,270,1.0,5.0,96,0.00,,,-99.99,WeatherLink 5.7,2013-01-14 12:51:00,
2013-01-14 08:00:00,50.1,49.0,29.87,SSW,202,0.0,1.0,96,0.00,,,-99.99,WeatherLink 5.7,2013-01-14 13:00:00,
2013-01-14 08:05:00,50.2,49.1,29.87,SSW,202,1.0,5.0,96,0.00,,,-99.99,WeatherLink 5.7,2013-01-14 13:05:00,
2013-01-14 08:15:00,50.2,49.1,29.86,West,270,0.0,2.0,96,0.00,,,-99.99,WeatherLink 5.7,2013-01-14 13:15:00,
2013-01-14 08:25:00,50.2,49.1,29.86,SW,225,0.0,2.0,96,0.00,,,-99.99,WeatherLink 5.7,2013-01-14 13:25:00,
2013-01-14 08:35:00,50.4,49.3,29.89,West,270,0.0,1.0,96,0.00,,,-99.99,WeatherLink 5.7,2013-01-14 13:35:00,
2013-01-14 08:46:00,50.5,49.1,29.90,West,270,0.0,1.0,95,0.00,,,-99.99,WeatherLink 5.7,2013-01-14 13:46:00,
2013-01-14 08:55:00,50.5,49.1,29.90,West,270,0.0,1.0,95,0.00,,,-99.99,WeatherLink 5.7,2013-01-14 13:55:00,
2013-01-14 09:06:00,50.8,49.4,29.90,North,-999,0.0,0.0,95,0.00,,,-99.99,WeatherLink 5.7,2013-01-14 14:06:00,
2013-01-14 09:15:00,51.0,49.6,29.90,North,-999,0.0,0.0,95,0.00,,,-99.99,WeatherLink 5.7,2013-01-14 14:15:00,
2013-01-14 09:25:00,51.1,49.7,29.90,West,270,0.0,1.0,95,0.00,,,-99.99,WeatherLink 5.7,2013-01-14 14:25:00,
2013-01-14 09:35:00,51.6,50.2,29.91,West,270,0.0,1.0,95,0.00,,,-99.99,WeatherLink 5.7,2013-01-14 14:35:00,
2013-01-14 09:41:00,51.7,50.0,29.91,West,270,1.0,2.0,94,0.00,,,-99.99,WeatherLink 5.7,2013-01-14 14:41:00,
2013-01-14 09:51:00,52.3,50.6,29.92,West,270,0.0,1.0,94,0.00,,,-99.99,WeatherLink 5.7,2013-01-14 14:51:00,
2013-01-14 10:01:00,53.1,50.8,29.93,West,270,0.0,2.0,92,0.00,,,-99.99,WeatherLink 5.7,2013-01-14 15:01:00,
2013-01-14 10:10:00,53.8,50.9,29.93,WSW,247,1.0,5.0,90,0.00,,,-99.99,WeatherLink 5.7,2013-01-14 15:10:00,
2013-01-14 10:15:00,54.2,51.0,29.93,WSW,247,1.0,6.0,89,0.00,,,-99.99,WeatherLink 5.7,2013-01-14 15:15:00,
2013-01-14 10:21:00,54.7,50.9,29.93,West,270,2.0,6.0,87,0.00,,,-99.99,WeatherLink 5.7,2013-01-14 15:21:00,
2013-01-14 10:30:00,55.6,50.8,29.92,West,270,1.0,4.0,84,0.00,,,-99.99,WeatherLink 5.7,2013-01-14 15:30:00,
2013-01-14 10:40:00,56.0,50.6,29.92,WSW,247,1.0,5.0,82,0.00,,,-99.99,WeatherLink 5.7,2013-01-14 15:40:00,
2013-01-14 10:50:00,56.5,50.4,29.92,West,270,2.0,5.0,80,0.00,,,-99.99,WeatherLink 5.7,2013-01-14 15:50:00,
2013-01-14 10:55:00,56.5,50.4,29.92,WSW,247,2.0,5.0,80,0.00,,,-99.99,WeatherLink 5.7,2013-01-14 15:55:00,
2013-01-14 11:05:00,56.9,50.5,29.91,West,270,0.0,1.0,79,0.00,,,-99.99,WeatherLink 5.7,2013-01-14 16:05:00,
2013-01-14 11:13:00,57.0,49.9,29.91,WSW,247,1.0,5.0,77,0.00,,,-99.99,WeatherLink 5.7,2013-01-14 16:13:00,
2013-01-14 11:20:00,57.3,49.8,29.91,WSW,247,2.0,4.0,76,0.00,,,-99.99,WeatherLink 5.7,2013-01-14 16:20:00,
2013-01-14 11:25:00,57.3,49.8,29.91,WSW,247,2.0,5.0,76,0.00,,,-99.99,WeatherLink 5.7,2013-01-14 16:25:00,
2013-01-14 11:30:00,57.2,49.7,29.90,West,270,1.0,5.0,76,0.00,,,-99.99,WeatherLink 5.7,2013-01-14 16:30:00,
2013-01-14 11:35:00,56.9,49.4,29.90,West,270,1.0,3.0,76,0.00,,,-99.99,WeatherLink 5.7,2013-01-14 16:35:00,
2013-01-14 11:40:00,56.7,49.2,29.90,West,270,1.0,5.0,76,0.00,,,-99.99,WeatherLink 5.7,2013-01-14 16:40:00,
2013-01-14 11:45:00,56.7,48.9,29.90,West,270,2.0,5.0,75,0.00,,,-99.99,WeatherLink 5.7,2013-01-14 16:45:00,
2013-01-14 11:50:00,57.8,49.2,29.90,West,270,1.0,3.0,73,0.00,,,-99.99,WeatherLink 5.7,2013-01-14 16:50:00,
2013-01-14 11:55:00,59.0,49.2,29.90,West,270,2.0,6.0,70,0.00,,,-99.99,WeatherLink 5.7,2013-01-14 16:55:00,
2013-01-14 12:00:00,60.1,49.1,29.91,West,270,2.0,6.0,67,0.00,,,-99.99,WeatherLink 5.7,2013-01-14 17:00:00,
2013-01-14 12:05:00,60.9,49.1,29.91,WSW,247,1.0,3.0,65,0.00,,,-99.99,WeatherLink 5.7,2013-01-14 17:05:00,
2013-01-14 12:10:00,61.8,49.1,29.91,West,270,2.0,6.0,63,0.00,,,-99.99,WeatherLink 5.7,2013-01-14 17:10:00,
2013-01-14 12:15:00,62.1,48.5,29.90,West,270,3.0,7.0,61,0.00,,,-99.99,WeatherLink 5.7,2013-01-14 17:15:00,
2013-01-14 12:20:00,62.7,47.7,29.90,WNW,292,2.0,5.0,58,0.00,,,-99.99,WeatherLink 5.7,2013-01-14 17:20:00,
2013-01-14 12:25:00,63.2,48.2,29.90,West,270,2.0,6.0,58,0.00,,,-99.99,WeatherLink 5.7,2013-01-14 17:25:00,
2013-01-14 12:30:00,63.5,48.0,29.90,West,270,2.0,6.0,57,0.00,,,-99.99,WeatherLink 5.7,2013-01-14 17:30:00,
2013-01-14 12:35:00,63.9,47.4,29.90,WSW,247,2.0,6.0,55,0.00,,,-99.99,WeatherLink 5.7,2013-01-14 17:35:00,
2013-01-14 12:40:00,64.0,47.5,29.90,West,270,2.0,6.0,55,0.00,,,-99.99,WeatherLink 5.7,2013-01-14 17:40:00,
2013-01-14 12:45:00,64.2,47.2,29.89,WSW,247,2.0,5.0,54,0.00,,,-99.99,WeatherLink 5.7,2013-01-14 17:45:00,
2013-01-14 12:50:00,64.5,46.5,29.89,WSW,247,3.0,7.0,52,0.00,,,-99.99,WeatherLink 5.7,2013-01-14 17:50:00,
2013-01-14 12:55:00,64.5,46.0,29.89,WSW,247,2.0,7.0,51,0.00,,,-99.99,WeatherLink 5.7,2013-01-14 17:55:00,
2013-01-14 13:00:00,64.3,45.8,29.90,WSW,247,4.0,11.0,51,0.00,,,-99.99,WeatherLink 5.7,2013-01-14 18:00:00,
2013-01-14 13:05:00,64.0,46.0,29.90,WSW,247,2.0,6.0,52,0.00,,,-99.99,WeatherLink 5.7,2013-01-14 18:05:00,
2013-01-14 13:10:00,64.3,45.8,29.90,WSW,247,3.0,8.0,51,0.00,,,-99.99,WeatherLink 5.7,2013-01-14 18:10:00,
2013-01-14 13:15:00,64.5,43.8,29.91,West,270,5.0,10.0,47,0.00,,,-99.99,WeatherLink 5.7,2013-01-14 18:15:00,
2013-01-14 13:20:00,64.2,43.0,29.91,WSW,247,5.0,13.0,46,0.00,,,-99.99,WeatherLink 5.7,2013-01-14 18:20:00,
2013-01-14 13:25:00,63.9,42.1,29.91,WSW,247,5.0,12.0,45,0.00,,,-99.99,WeatherLink 5.7,2013-01-14 18:25:00,
2013-01-14 13:30:00,63.7,40.8,29.92,West,270,6.0,11.0,43,0.00,,,-99.99,WeatherLink 5.7,2013-01-14 18:30:00,
2013-01-14 13:40:00,63.2,40.3,29.92,West,270,5.0,10.0,43,0.00,,,-99.99,WeatherLink 5.7,2013-01-14 18:40:00,
2013-01-14 13:50:00,62.6,39.2,29.92,WSW,247,5.0,10.0,42,0.00,,,-99.99,WeatherLink 5.7,2013-01-14 18:50:00,
2013-01-14 14:00:00,63.4,39.3,29.94,WSW,247,2.0,6.0,41,0.00,,,-99.99,WeatherLink 5.7,2013-01-14 19:00:00,
2013-01-14 14:06:00,63.2,39.1,29.94,West,270,3.0,8.0,41,0.00,,,-99.99,WeatherLink 5.7,2013-01-14 19:06:00,
2013-01-14 14:16:00,63.4,39.3,29.94,West,270,4.0,11.0,41,0.00,,,-99.99,WeatherLink 5.7,2013-01-14 19:16:00,
2013-01-14 14:26:00,62.1,41.1,29.94,WSW,247,4.0,8.0,46,0.00,,,-99.99,WeatherLink 5.7,2013-01-14 19:26:00,
2013-01-14 14:36:00,60.1,39.2,29.96,West,270,4.0,10.0,46,0.00,,,-99.99,WeatherLink 5.7,2013-01-14 19:36:00,
2013-01-14 14:46:00,58.9,39.2,29.98,West,270,3.0,7.0,48,0.00,,,-99.99,WeatherLink 5.7,2013-01-14 19:46:00,
2013-01-14 14:56:00,58.3,38.1,29.98,West,270,2.0,7.0,47,0.00,,,-99.99,WeatherLink 5.7,2013-01-14 19:56:00,
2013-01-14 15:06:00,57.2,34.9,29.99,West,270,4.0,8.0,43,0.00,,,-99.99,WeatherLink 5.7,2013-01-14 20:06:00,
2013-01-14 15:15:00,56.3,35.2,30.00,West,270,5.0,7.0,45,0.00,,,-99.99,WeatherLink 5.7,2013-01-14 20:15:00,
2013-01-14 15:25:00,55.6,36.2,30.00,WNW,292,3.0,6.0,48,0.00,,,-99.99,WeatherLink 5.7,2013-01-14 20:25:00,
2013-01-14 15:35:00,54.5,35.2,30.00,West,270,3.0,6.0,48,0.00,,,-99.99,WeatherLink 5.7,2013-01-14 20:35:00,
2013-01-14 15:40:00,53.9,34.6,30.00,West,270,4.0,10.0,48,0.00,,,-99.99,WeatherLink 5.7,2013-01-14 20:40:00,
2013-01-14 15:50:00,53.3,34.1,30.02,WNW,292,3.0,8.0,48,0.00,,,-99.99,WeatherLink 5.7,2013-01-14 20:50:00,
2013-01-14 15:56:00,53.1,33.9,30.02,WNW,292,2.0,8.0,48,0.00,,,-99.99,WeatherLink 5.7,2013-01-14 20:56:00,
2013-01-14 16:05:00,52.5,34.9,30.02,West,270,4.0,11.0,51,0.00,,,-99.99,WeatherLink 5.7,2013-01-14 21:05:00,
2013-01-14 16:10:00,52.2,34.6,30.02,WNW,292,3.0,8.0,51,0.00,,,-99.99,WeatherLink 5.7,2013-01-14 21:10:00,
2013-01-14 16:20:00,51.6,34.0,30.02,West,270,2.0,5.0,51,0.00,,,-99.99,WeatherLink 5.7,2013-01-14 21:20:00,
2013-01-14 16:25:00,51.4,34.3,30.02,West,270,2.0,5.0,52,0.00,,,-99.99,WeatherLink 5.7,2013-01-14 21:25:00,
2013-01-14 16:35:00,50.7,34.2,30.03,West,270,1.0,3.0,53,0.00,,,-99.99,WeatherLink 5.7,2013-01-14 21:35:00,
2013-01-14 16:46:00,49.9,34.4,30.03,WNW,292,0.0,2.0,55,0.00,,,-99.99,WeatherLink 5.7,2013-01-14 21:46:00,
2013-01-14 16:55:00,49.1,35.4,30.03,WNW,292,1.0,3.0,59,0.00,,,-99.99,WeatherLink 5.7,2013-01-14 21:55:00,
2013-01-14 17:05:00,48.3,34.2,30.04,West,270,0.0,2.0,58,0.00,,,-99.99,WeatherLink 5.7,2013-01-14 22:05:00,
2013-01-14 17:11:00,48.0,34.8,30.04,West,270,0.0,2.0,60,0.00,,,-99.99,WeatherLink 5.7,2013-01-14 22:11:00,
2013-01-14 17:21:00,47.4,33.4,30.05,West,270,2.0,5.0,58,0.00,,,-99.99,WeatherLink 5.7,2013-01-14 22:21:00,
2013-01-14 17:31:00,46.8,32.8,30.05,West,270,1.0,3.0,58,0.00,,,-99.99,WeatherLink 5.7,2013-01-14 22:31:00,
2013-01-14 17:40:00,46.4,32.0,30.05,West,270,0.0,3.0,57,0.00,,,-99.99,WeatherLink 5.7,2013-01-14 22:40:00,
2013-01-14 17:50:00,46.1,32.6,30.05,West,270,1.0,2.0,59,0.00,,,-99.99,WeatherLink 5.7,2013-01-14 22:50:00,
2013-01-14 18:00:00,45.5,32.8,30.05,North,-999,0.0,0.0,61,0.00,,,-99.99,WeatherLink 5.7,2013-01-14 23:00:00,
2013-01-14 18:06:00,45.1,32.8,30.05,North,-999,0.0,0.0,62,0.00,,,-99.99,WeatherLink 5.7,2013-01-14 23:06:00,
2013-01-14 18:15:00,44.3,32.1,30.06,North,-999,0.0,0.0,62,0.00,,,-99.99,WeatherLink 5.7,2013-01-14 23:15:00,
2013-01-14 18:25:00,43.8,33.6,30.06,North,-999,0.0,0.0,67,0.00,,,-99.99,WeatherLink 5.7,2013-01-14 23:25:00,
2013-01-14 18:31:00,43.3,33.1,30.06,North,-999,0.0,0.0,67,0.00,,,-99.99,WeatherLink 5.7,2013-01-14 23:31:00,
2013-01-14 18:40:00,42.8,33.0,30.06,West,270,0.0,2.0,68,0.00,,,-99.99,WeatherLink 5.7,2013-01-14 23:40:00,
2013-01-14 18:46:00,42.5,33.4,30.07,West,270,2.0,3.0,70,0.00,,,-99.99,WeatherLink 5.7,2013-01-14 23:46:00,
2013-01-14 18:56:00,41.8,34.1,30.07,West,270,2.0,3.0,74,0.00,,,-99.99,WeatherLink 5.7,2013-01-14 23:56:00,
2013-01-14 19:05:00,41.8,32.7,30.07,North,-999,0.0,0.0,70,0.00,,,-99.99,WeatherLink 5.7,2013-01-15 00:05:00,
2013-01-14 19:16:00,41.8,33.8,30.10,West,270,1.0,4.0,73,0.00,,,-99.99,WeatherLink 5.7,2013-01-15 00:16:00,
2013-01-14 19:25:00,41.6,33.6,30.10,West,270,1.0,2.0,73,0.00,,,-99.99,WeatherLink 5.7,2013-01-15 00:25:00,
2013-01-14 19:35:00,41.8,32.4,30.11,NNW,337,0.0,1.0,69,0.00,,,-99.99,WeatherLink 5.7,2013-01-15 00:35:00,
2013-01-14 19:45:00,42.1,32.7,30.10,WNW,292,2.0,3.0,69,0.00,,,-99.99,WeatherLink 5.7,2013-01-15 00:45:00,
2013-01-14 19:55:00,42.1,30.4,30.10,West,270,1.0,5.0,63,0.00,,,-99.99,WeatherLink 5.7,2013-01-15 00:55:00,
2013-01-14 20:01:00,42.2,29.3,30.12,WNW,292,1.0,4.0,60,0.00,,,-99.99,WeatherLink 5.7,2013-01-15 01:01:00,
2013-01-14 20:10:00,42.3,28.1,30.12,NW,315,2.0,6.0,57,0.00,,,-99.99,WeatherLink 5.7,2013-01-15 01:10:00,
2013-01-14 20:15:00,42.6,28.0,30.11,WNW,292,2.0,7.0,56,0.00,,,-99.99,WeatherLink 5.7,2013-01-15 01:15:00,
2013-01-14 20:21:00,42.6,27.5,30.11,WNW,292,2.0,5.0,55,0.00,,,-99.99,WeatherLink 5.7,2013-01-15 01:21:00,
2013-01-14 20:31:00,42.9,27.4,30.12,WNW,292,1.0,5.0,54,0.00,,,-99.99,WeatherLink 5.7,2013-01-15 01:31:00,
2013-01-14 20:41:00,42.9,26.5,30.12,West,270,2.0,10.0,52,0.00,,,-99.99,WeatherLink 5.7,2013-01-15 01:41:00,
2013-01-14 20:51:00,42.9,27.4,30.13,West,270,2.0,5.0,54,0.00,,,-99.99,WeatherLink 5.7,2013-01-15 01:51:00,
2013-01-14 21:01:00,42.6,27.5,30.13,WNW,292,1.0,3.0,55,0.00,,,-99.99,WeatherLink 5.7,2013-01-15 02:01:00,
2013-01-14 21:10:00,42.3,26.4,30.13,WNW,292,2.0,5.0,53,0.00,,,-99.99,WeatherLink 5.7,2013-01-15 02:10:00,
2013-01-14 21:20:00,42.3,27.3,30.13,West,270,2.0,5.0,55,0.00,,,-99.99,WeatherLink 5.7,2013-01-15 02:20:00,
2013-01-14 21:31:00,42.2,26.7,30.12,North,0,1.0,6.0,54,0.00,,,-99.99,WeatherLink 5.7,2013-01-15 02:31:00,
2013-01-14 21:41:00,42.1,27.1,30.12,NW,315,0.0,3.0,55,0.00,,,-99.99,WeatherLink 5.7,2013-01-15 02:41:00,
2013-01-14 21:51:00,41.8,27.2,30.13,NNW,337,0.0,1.0,56,0.00,,,-99.99,WeatherLink 5.7,2013-01-15 02:51:00,
2013-01-14 22:01:00,41.6,27.1,30.14,WSW,247,1.0,6.0,56,0.00,,,-99.99,WeatherLink 5.7,2013-01-15 03:01:00,
2013-01-14 22:11:00,41.3,27.2,30.14,NNW,337,1.0,5.0,57,0.00,,,-99.99,WeatherLink 5.7,2013-01-15 03:11:00,
2013-01-14 22:20:00,41.2,26.7,30.15,WNW,292,1.0,4.0,56,0.00,,,-99.99,WeatherLink 5.7,2013-01-15 03:20:00,
2013-01-14 22:31:00,41.1,26.6,30.16,WNW,292,3.0,7.0,56,0.00,,,-99.99,WeatherLink 5.7,2013-01-15 03:31:00,
2013-01-14 22:40:00,40.8,26.7,30.16,WNW,292,2.0,6.0,57,0.00,,,-99.99,WeatherLink 5.7,2013-01-15 03:40:00,
2013-01-14 22:50:00,40.6,26.5,30.16,West,270,3.0,7.0,57,0.00,,,-99.99,WeatherLink 5.7,2013-01-15 03:50:00,
2013-01-14 23:00:00,40.3,25.8,30.15,West,270,4.0,9.0,56,0.00,,,-99.99,WeatherLink 5.7,2013-01-15 04:00:00,
2013-01-14 23:05:00,40.3,25.4,30.15,North,0,4.0,11.0,55,0.00,,,-99.99,WeatherLink 5.7,2013-01-15 04:05:00,
2013-01-14 23:10:00,40.2,25.7,30.15,West,270,1.0,3.0,56,0.00,,,-99.99,WeatherLink 5.7,2013-01-15 04:10:00,
2013-01-14 23:15:00,40.1,25.2,30.16,West,270,3.0,7.0,55,0.00,,,-99.99,WeatherLink 5.7,2013-01-15 04:15:00,
2013-01-14 23:20:00,40.1,25.6,30.16,NW,315,3.0,11.0,56,0.00,,,-99.99,WeatherLink 5.7,2013-01-15 04:20:00,
2013-01-14 23:25:00,39.9,26.3,30.16,NNW,337,0.0,3.0,58,0.00,,,-99.99,WeatherLink 5.7,2013-01-15 04:25:00,
2013-01-14 23:30:00,39.9,26.3,30.16,NNW,337,0.0,1.0,58,0.00,,,-99.99,WeatherLink 5.7,2013-01-15 04:30:00,
2013-01-14 23:35:00,39.8,26.2,30.16,NW,315,1.0,3.0,58,0.00,,,-99.99,WeatherLink 5.7,2013-01-15 04:35:00,
2013-01-14 23:40:00,39.6,26.0,30.16,WNW,292,1.0,3.0,58,0.00,,,-99.99,WeatherLink 5.7,2013-01-15 04:40:00,
2013-01-14 23:45:00,39.6,26.0,30.17,WNW,292,2.0,5.0,58,0.00,,,-99.99,WeatherLink 5.7,2013-01-15 04:45:00,
2013-01-14 23:50:00,39.6,26.8,30.17,West,270,2.0,6.0,60,0.00,,,-99.99,WeatherLink 5.7,2013-01-15 04:50:00,
2013-01-14 23:55:00,39.5,26.3,30.17,WNW,292,1.0,3.0,59,0.00,,,-99.99,WeatherLink 5.7,2013-01-15 04:55:00,